sensor_id;sensor_type;location;lat;lon;timestamp;temperature;humidity
17659;DHT22;8948;51.534;8.262;2023-11-21T00:02:58;9.20;77.20
17659;DHT22;8948;51.534;8.262;2023-11-21T00:07:59;9.20;77.50
17659;DHT22;8948;51.534;8.262;2023-11-21T00:13:00;9.10;77.70
17659;DHT22;8948;51.534;8.262;2023-11-21T00:18:02;9.20;77.70
17659;DHT22;8948;51.534;8.262;2023-11-21T00:23:02;9.10;77.70
17659;DHT22;8948;51.534;8.262;2023-11-21T00:28:03;9.10;77.80
17659;DHT22;8948;51.534;8.262;2023-11-21T00:33:04;9.20;77.50
17659;DHT22;8948;51.534;8.262;2023-11-21T00:38:04;9.10;77.80
17659;DHT22;8948;51.534;8.262;2023-11-21T00:43:05;9.20;77.70
17659;DHT22;8948;51.534;8.262;2023-11-21T00:48:05;9.20;77.60
17659;DHT22;8948;51.534;8.262;2023-11-21T00:53:06;9.20;77.90
17659;DHT22;8948;51.534;8.262;2023-11-21T00:58:07;9.30;77.80
17659;DHT22;8948;51.534;8.262;2023-11-21T01:03:08;9.30;78.00
17659;DHT22;8948;51.534;8.262;2023-11-21T01:08:08;9.30;78.20
17659;DHT22;8948;51.534;8.262;2023-11-21T01:13:09;9.30;78.00
17659;DHT22;8948;51.534;8.262;2023-11-21T01:18:11;9.30;77.90
17659;DHT22;8948;51.534;8.262;2023-11-21T01:23:11;9.30;77.90
17659;DHT22;8948;51.534;8.262;2023-11-21T01:28:12;9.30;78.20
17659;DHT22;8948;51.534;8.262;2023-11-21T01:33:12;9.30;78.50
17659;DHT22;8948;51.534;8.262;2023-11-21T01:38:13;9.30;78.50
17659;DHT22;8948;51.534;8.262;2023-11-21T01:43:15;9.20;79.10
17659;DHT22;8948;51.534;8.262;2023-11-21T01:48:16;9.20;79.90
17659;DHT22;8948;51.534;8.262;2023-11-21T01:53:17;9.10;80.50
17659;DHT22;8948;51.534;8.262;2023-11-21T01:58:18;9.10;80.70
17659;DHT22;8948;51.534;8.262;2023-11-21T02:03:20;9.20;80.30
17659;DHT22;8948;51.534;8.262;2023-11-21T02:08:21;9.20;80.20
17659;DHT22;8948;51.534;8.262;2023-11-21T02:13:21;9.20;80.50
17659;DHT22;8948;51.534;8.262;2023-11-21T02:18:22;9.30;80.10
17659;DHT22;8948;51.534;8.262;2023-11-21T02:23:22;9.40;79.80
17659;DHT22;8948;51.534;8.262;2023-11-21T02:28:23;9.40;79.70
17659;DHT22;8948;51.534;8.262;2023-11-21T02:33:26;9.40;79.80
17659;DHT22;8948;51.534;8.262;2023-11-21T02:38:26;9.40;79.90
17659;DHT22;8948;51.534;8.262;2023-11-21T02:43:27;9.40;79.90
17659;DHT22;8948;51.534;8.262;2023-11-21T02:48:27;9.40;79.80
17659;DHT22;8948;51.534;8.262;2023-11-21T02:53:28;9.40;80.00
17659;DHT22;8948;51.534;8.262;2023-11-21T02:58:28;9.30;80.30
17659;DHT22;8948;51.534;8.262;2023-11-21T03:03:29;9.30;80.40
17659;DHT22;8948;51.534;8.262;2023-11-21T03:08:29;9.30;80.40
17659;DHT22;8948;51.534;8.262;2023-11-21T03:13:31;9.30;80.40
17659;DHT22;8948;51.534;8.262;2023-11-21T03:18:31;9.30;80.60
17659;DHT22;8948;51.534;8.262;2023-11-21T03:23:32;9.30;80.60
17659;DHT22;8948;51.534;8.262;2023-11-21T03:28:33;9.40;80.20
17659;DHT22;8948;51.534;8.262;2023-11-21T03:33:34;9.40;79.90
17659;DHT22;8948;51.534;8.262;2023-11-21T03:38:36;9.40;79.70
17659;DHT22;8948;51.534;8.262;2023-11-21T03:43:37;9.30;80.10
17659;DHT22;8948;51.534;8.262;2023-11-21T03:48:38;9.30;80.20
17659;DHT22;8948;51.534;8.262;2023-11-21T03:53:38;9.20;80.60
17659;DHT22;8948;51.534;8.262;2023-11-21T03:58:39;9.30;80.50
17659;DHT22;8948;51.534;8.262;2023-11-21T04:03:40;9.30;80.20
17659;DHT22;8948;51.534;8.262;2023-11-21T04:08:40;9.30;80.80
17659;DHT22;8948;51.534;8.262;2023-11-21T04:13:41;9.30;80.80
17659;DHT22;8948;51.534;8.262;2023-11-21T04:18:42;9.20;81.00
17659;DHT22;8948;51.534;8.262;2023-11-21T04:23:43;9.20;81.50
17659;DHT22;8948;51.534;8.262;2023-11-21T04:28:43;9.20;81.60
17659;DHT22;8948;51.534;8.262;2023-11-21T04:33:45;9.10;82.00
17659;DHT22;8948;51.534;8.262;2023-11-21T04:38:45;9.60;83.90
17659;DHT22;8948;51.534;8.262;2023-11-21T04:43:46;10.00;82.60
17659;DHT22;8948;51.534;8.262;2023-11-21T04:48:46;10.30;80.70
17659;DHT22;8948;51.534;8.262;2023-11-21T04:53:47;10.50;81.50
17659;DHT22;8948;51.534;8.262;2023-11-21T04:58:47;10.70;79.00
17659;DHT22;8948;51.534;8.262;2023-11-21T05:03:48;10.70;80.00
17659;DHT22;8948;51.534;8.262;2023-11-21T05:08:49;10.80;78.90
17659;DHT22;8948;51.534;8.262;2023-11-21T05:13:50;11.00;78.50
17659;DHT22;8948;51.534;8.262;2023-11-21T05:18:50;11.00;79.20
17659;DHT22;8948;51.534;8.262;2023-11-21T05:23:51;10.70;76.30
17659;DHT22;8948;51.534;8.262;2023-11-21T05:28:51;10.20;77.70
17659;DHT22;8948;51.534;8.262;2023-11-21T05:33:52;10.00;78.90
17659;DHT22;8948;51.534;8.262;2023-11-21T05:38:53;9.90;79.10
17659;DHT22;8948;51.534;8.262;2023-11-21T05:43:54;9.70;80.00
17659;DHT22;8948;51.534;8.262;2023-11-21T05:48:54;9.80;79.70
17659;DHT22;8948;51.534;8.262;2023-11-21T05:53:55;9.60;79.50
17659;DHT22;8948;51.534;8.262;2023-11-21T05:58:55;9.30;79.30
17659;DHT22;8948;51.534;8.262;2023-11-21T06:03:56;9.20;80.10
17659;DHT22;8948;51.534;8.262;2023-11-21T06:08:57;9.20;79.90
17659;DHT22;8948;51.534;8.262;2023-11-21T06:13:58;9.10;80.00
17659;DHT22;8948;51.534;8.262;2023-11-21T06:18:58;9.10;80.30
17659;DHT22;8948;51.534;8.262;2023-11-21T06:23:59;9.20;80.00
17659;DHT22;8948;51.534;8.262;2023-11-21T06:28:59;9.20;79.80
17659;DHT22;8948;51.534;8.262;2023-11-21T06:34:01;9.30;79.70
17659;DHT22;8948;51.534;8.262;2023-11-21T06:39:01;9.40;79.70
17659;DHT22;8948;51.534;8.262;2023-11-21T06:44:02;9.40;80.00
17659;DHT22;8948;51.534;8.262;2023-11-21T06:49:03;9.40;79.80
17659;DHT22;8948;51.534;8.262;2023-11-21T06:54:03;9.50;79.60
17659;DHT22;8948;51.534;8.262;2023-11-21T06:59:04;9.50;79.70
17659;DHT22;8948;51.534;8.262;2023-11-21T07:04:06;9.50;79.40
17659;DHT22;8948;51.534;8.262;2023-11-21T07:09:07;9.40;79.70
17659;DHT22;8948;51.534;8.262;2023-11-21T07:14:08;9.40;79.80
17659;DHT22;8948;51.534;8.262;2023-11-21T07:19:09;9.40;79.40
17659;DHT22;8948;51.534;8.262;2023-11-21T07:24:09;9.30;80.00
17659;DHT22;8948;51.534;8.262;2023-11-21T07:29:11;9.30;80.20
17659;DHT22;8948;51.534;8.262;2023-11-21T07:34:13;9.30;80.50
17659;DHT22;8948;51.534;8.262;2023-11-21T07:39:14;9.50;80.20
17659;DHT22;8948;51.534;8.262;2023-11-21T07:44:17;9.50;79.70
17659;DHT22;8948;51.534;8.262;2023-11-21T07:49:20;9.40;80.00
17659;DHT22;8948;51.534;8.262;2023-11-21T07:54:21;9.30;80.70
17659;DHT22;8948;51.534;8.262;2023-11-21T07:59:22;9.30;81.20
17659;DHT22;8948;51.534;8.262;2023-11-21T08:04:22;9.30;81.50
17659;DHT22;8948;51.534;8.262;2023-11-21T08:09:23;9.30;81.70
17659;DHT22;8948;51.534;8.262;2023-11-21T08:14:24;9.30;81.80
17659;DHT22;8948;51.534;8.262;2023-11-21T08:19:27;9.30;81.60
17659;DHT22;8948;51.534;8.262;2023-11-21T08:24:28;9.30;81.80
17659;DHT22;8948;51.534;8.262;2023-11-21T08:29:28;9.40;81.90
17659;DHT22;8948;51.534;8.262;2023-11-21T08:34:29;9.40;81.60
17659;DHT22;8948;51.534;8.262;2023-11-21T08:39:29;9.50;81.20
17659;DHT22;8948;51.534;8.262;2023-11-21T08:44:30;9.40;81.90
17659;DHT22;8948;51.534;8.262;2023-11-21T08:49:32;9.50;81.60
17659;DHT22;8948;51.534;8.262;2023-11-21T08:54:32;9.50;81.40
17659;DHT22;8948;51.534;8.262;2023-11-21T08:59:34;9.50;81.70
17659;DHT22;8948;51.534;8.262;2023-11-21T09:04:35;9.50;81.90
17659;DHT22;8948;51.534;8.262;2023-11-21T09:09:35;9.50;81.30
17659;DHT22;8948;51.534;8.262;2023-11-21T09:14:36;9.50;81.30
17659;DHT22;8948;51.534;8.262;2023-11-21T09:19:37;9.50;81.10
17659;DHT22;8948;51.534;8.262;2023-11-21T09:24:38;9.40;81.70
17659;DHT22;8948;51.534;8.262;2023-11-21T09:29:38;9.40;82.20
17659;DHT22;8948;51.534;8.262;2023-11-21T09:34:39;9.50;81.90
17659;DHT22;8948;51.534;8.262;2023-11-21T09:39:40;9.50;81.60
17659;DHT22;8948;51.534;8.262;2023-11-21T09:44:47;9.50;81.90
17659;DHT22;8948;51.534;8.262;2023-11-21T09:49:49;9.50;81.80
17659;DHT22;8948;51.534;8.262;2023-11-21T09:54:51;9.60;81.70
17659;DHT22;8948;51.534;8.262;2023-11-21T09:59:54;9.60;82.10
17659;DHT22;8948;51.534;8.262;2023-11-21T10:04:58;9.50;82.20
17659;DHT22;8948;51.534;8.262;2023-11-21T10:10:00;9.70;81.80
17659;DHT22;8948;51.534;8.262;2023-11-21T10:15:03;9.60;82.00
17659;DHT22;8948;51.534;8.262;2023-11-21T10:20:09;9.60;82.00
17659;DHT22;8948;51.534;8.262;2023-11-21T10:25:12;9.50;82.40
17659;DHT22;8948;51.534;8.262;2023-11-21T10:30:17;9.60;82.30
17659;DHT22;8948;51.534;8.262;2023-11-21T10:35:18;9.60;81.80
17659;DHT22;8948;51.534;8.262;2023-11-21T10:40:20;9.60;82.30
17659;DHT22;8948;51.534;8.262;2023-11-21T10:45:20;9.60;82.60
17659;DHT22;8948;51.534;8.262;2023-11-21T10:50:23;9.70;81.80
17659;DHT22;8948;51.534;8.262;2023-11-21T10:55:26;9.70;81.30
17659;DHT22;8948;51.534;8.262;2023-11-21T11:00:28;9.80;81.80
17659;DHT22;8948;51.534;8.262;2023-11-21T11:05:29;9.80;81.20
17659;DHT22;8948;51.534;8.262;2023-11-21T11:10:30;9.80;80.90
17659;DHT22;8948;51.534;8.262;2023-11-21T11:15:31;9.70;81.30
17659;DHT22;8948;51.534;8.262;2023-11-21T11:20:35;9.70;81.20
17659;DHT22;8948;51.534;8.262;2023-11-21T11:25:53;9.60;81.50
17659;DHT22;8948;51.534;8.262;2023-11-21T11:41:07;9.50;82.50
17659;DHT22;8948;51.534;8.262;2023-11-21T11:46:10;9.50;82.10
17659;DHT22;8948;51.534;8.262;2023-11-21T11:51:14;9.40;82.10
17659;DHT22;8948;51.534;8.262;2023-11-21T11:56:31;9.40;82.50
17659;DHT22;8948;51.534;8.262;2023-11-21T12:01:34;9.50;82.40
17659;DHT22;8948;51.534;8.262;2023-11-21T12:06:35;9.50;82.60
17659;DHT22;8948;51.534;8.262;2023-11-21T12:11:36;9.50;82.50
17659;DHT22;8948;51.534;8.262;2023-11-21T12:16:37;9.50;82.20
17659;DHT22;8948;51.534;8.262;2023-11-21T12:21:38;9.50;82.50
17659;DHT22;8948;51.534;8.262;2023-11-21T12:26:42;9.50;81.80
17659;DHT22;8948;51.534;8.262;2023-11-21T12:31:43;9.50;82.70
17659;DHT22;8948;51.534;8.262;2023-11-21T12:36:43;9.50;82.70
17659;DHT22;8948;51.534;8.262;2023-11-21T12:41:46;9.50;82.40
17659;DHT22;8948;51.534;8.262;2023-11-21T12:46:46;9.40;82.60
17659;DHT22;8948;51.534;8.262;2023-11-21T12:51:47;9.40;83.10
17659;DHT22;8948;51.534;8.262;2023-11-21T12:56:49;9.40;82.80
17659;DHT22;8948;51.534;8.262;2023-11-21T13:01:49;9.50;82.40
17659;DHT22;8948;51.534;8.262;2023-11-21T13:06:51;9.50;82.20
17659;DHT22;8948;51.534;8.262;2023-11-21T13:12:00;9.40;82.10
17659;DHT22;8948;51.534;8.262;2023-11-21T13:17:03;9.40;82.00
17659;DHT22;8948;51.534;8.262;2023-11-21T13:22:04;9.50;81.00
17659;DHT22;8948;51.534;8.262;2023-11-21T13:27:04;9.50;81.80
17659;DHT22;8948;51.534;8.262;2023-11-21T13:32:05;9.50;81.70
17659;DHT22;8948;51.534;8.262;2023-11-21T13:37:07;9.50;81.40
17659;DHT22;8948;51.534;8.262;2023-11-21T13:42:08;9.40;81.70
17659;DHT22;8948;51.534;8.262;2023-11-21T13:47:09;9.30;81.70
17659;DHT22;8948;51.534;8.262;2023-11-21T13:52:10;9.20;81.30
17659;DHT22;8948;51.534;8.262;2023-11-21T13:57:15;9.20;80.40
17659;DHT22;8948;51.534;8.262;2023-11-21T14:02:16;9.20;80.60
17659;DHT22;8948;51.534;8.262;2023-11-21T14:07:18;9.10;80.20
17659;DHT22;8948;51.534;8.262;2023-11-21T14:12:35;9.10;80.20
17659;DHT22;8948;51.534;8.262;2023-11-21T14:17:39;9.00;79.90
17659;DHT22;8948;51.534;8.262;2023-11-21T14:22:41;9.10;79.80
17659;DHT22;8948;51.534;8.262;2023-11-21T14:27:42;9.00;80.10
17659;DHT22;8948;51.534;8.262;2023-11-21T14:32:43;9.10;79.60
17659;DHT22;8948;51.534;8.262;2023-11-21T14:37:43;9.00;79.50
17659;DHT22;8948;51.534;8.262;2023-11-21T14:42:44;9.00;81.80
17659;DHT22;8948;51.534;8.262;2023-11-21T14:47:48;9.10;79.90
17659;DHT22;8948;51.534;8.262;2023-11-21T14:53:06;9.00;79.60
17659;DHT22;8948;51.534;8.262;2023-11-21T14:58:06;9.00;79.70
17659;DHT22;8948;51.534;8.262;2023-11-21T15:03:12;8.80;79.90
17659;DHT22;8948;51.534;8.262;2023-11-21T15:08:27;8.70;79.00
17659;DHT22;8948;51.534;8.262;2023-11-21T15:13:32;8.50;79.10
17659;DHT22;8948;51.534;8.262;2023-11-21T15:18:32;8.40;79.30
17659;DHT22;8948;51.534;8.262;2023-11-21T15:23:33;8.40;78.70
17659;DHT22;8948;51.534;8.262;2023-11-21T15:28:35;8.20;78.60
17659;DHT22;8948;51.534;8.262;2023-11-21T15:33:36;8.20;78.70
17659;DHT22;8948;51.534;8.262;2023-11-21T15:38:37;8.20;78.40
17659;DHT22;8948;51.534;8.262;2023-11-21T15:43:38;8.20;78.10
17659;DHT22;8948;51.534;8.262;2023-11-21T15:48:38;8.10;78.10
17659;DHT22;8948;51.534;8.262;2023-11-21T15:53:44;8.10;77.70
17659;DHT22;8948;51.534;8.262;2023-11-21T15:58:44;8.10;77.40
17659;DHT22;8948;51.534;8.262;2023-11-21T16:03:45;8.10;77.20
17659;DHT22;8948;51.534;8.262;2023-11-21T16:08:48;8.10;76.70
17659;DHT22;8948;51.534;8.262;2023-11-21T16:13:49;8.10;76.90
17659;DHT22;8948;51.534;8.262;2023-11-21T16:18:50;8.10;77.00
17659;DHT22;8948;51.534;8.262;2023-11-21T16:23:50;8.20;76.30
17659;DHT22;8948;51.534;8.262;2023-11-21T16:28:51;8.10;76.30
17659;DHT22;8948;51.534;8.262;2023-11-21T16:33:51;8.10;76.80
17659;DHT22;8948;51.534;8.262;2023-11-21T16:38:52;8.10;76.50
17659;DHT22;8948;51.534;8.262;2023-11-21T16:43:54;8.10;76.90
17659;DHT22;8948;51.534;8.262;2023-11-21T16:48:54;8.10;76.40
17659;DHT22;8948;51.534;8.262;2023-11-21T16:53:55;8.10;75.60
17659;DHT22;8948;51.534;8.262;2023-11-21T16:58:55;8.00;76.50
17659;DHT22;8948;51.534;8.262;2023-11-21T17:03:56;7.90;76.30
17659;DHT22;8948;51.534;8.262;2023-11-21T17:09:00;8.00;76.10
17659;DHT22;8948;51.534;8.262;2023-11-21T17:14:07;7.90;76.20
17659;DHT22;8948;51.534;8.262;2023-11-21T17:19:08;7.90;76.50
17659;DHT22;8948;51.534;8.262;2023-11-21T17:24:09;8.00;76.70
17659;DHT22;8948;51.534;8.262;2023-11-21T17:29:10;8.10;76.70
17659;DHT22;8948;51.534;8.262;2023-11-21T17:34:11;8.20;76.40
17659;DHT22;8948;51.534;8.262;2023-11-21T17:39:12;8.20;76.80
17659;DHT22;8948;51.534;8.262;2023-11-21T17:44:13;8.20;76.20
17659;DHT22;8948;51.534;8.262;2023-11-21T17:49:14;8.00;76.80
17659;DHT22;8948;51.534;8.262;2023-11-21T17:54:14;7.90;76.70
17659;DHT22;8948;51.534;8.262;2023-11-21T17:59:15;7.80;77.00
17659;DHT22;8948;51.534;8.262;2023-11-21T18:04:16;7.80;76.60
17659;DHT22;8948;51.534;8.262;2023-11-21T18:09:17;7.80;77.10
17659;DHT22;8948;51.534;8.262;2023-11-21T18:14:19;7.60;76.80
17659;DHT22;8948;51.534;8.262;2023-11-21T18:19:20;7.60;77.50
17659;DHT22;8948;51.534;8.262;2023-11-21T18:24:20;7.60;77.00
17659;DHT22;8948;51.534;8.262;2023-11-21T18:29:21;7.60;77.10
17659;DHT22;8948;51.534;8.262;2023-11-21T18:34:22;7.60;76.80
17659;DHT22;8948;51.534;8.262;2023-11-21T18:39:24;7.60;76.30
17659;DHT22;8948;51.534;8.262;2023-11-21T18:44:24;7.60;76.70
17659;DHT22;8948;51.534;8.262;2023-11-21T18:49:25;7.60;77.00
17659;DHT22;8948;51.534;8.262;2023-11-21T18:54:26;7.60;76.40
17659;DHT22;8948;51.534;8.262;2023-11-21T18:59:27;7.50;76.70
17659;DHT22;8948;51.534;8.262;2023-11-21T19:04:27;7.50;76.90
17659;DHT22;8948;51.534;8.262;2023-11-21T19:09:29;7.50;76.20
17659;DHT22;8948;51.534;8.262;2023-11-21T19:14:31;7.60;76.10
17659;DHT22;8948;51.534;8.262;2023-11-21T19:19:32;7.60;76.20
17659;DHT22;8948;51.534;8.262;2023-11-21T19:24:33;7.50;76.40
17659;DHT22;8948;51.534;8.262;2023-11-21T19:29:33;7.40;76.70
17659;DHT22;8948;51.534;8.262;2023-11-21T19:34:34;7.50;76.40
17659;DHT22;8948;51.534;8.262;2023-11-21T19:39:35;7.60;76.10
17659;DHT22;8948;51.534;8.262;2023-11-21T19:44:36;7.60;76.10
17659;DHT22;8948;51.534;8.262;2023-11-21T19:49:36;7.50;76.20
17659;DHT22;8948;51.534;8.262;2023-11-21T19:54:38;7.50;75.80
17659;DHT22;8948;51.534;8.262;2023-11-21T19:59:38;7.50;76.00
17659;DHT22;8948;51.534;8.262;2023-11-21T20:04:43;7.50;75.70
17659;DHT22;8948;51.534;8.262;2023-11-21T20:09:43;7.40;74.60
17659;DHT22;8948;51.534;8.262;2023-11-21T20:14:44;7.30;75.20
17659;DHT22;8948;51.534;8.262;2023-11-21T20:19:47;7.20;74.60
17659;DHT22;8948;51.534;8.262;2023-11-21T20:24:47;7.20;75.40
17659;DHT22;8948;51.534;8.262;2023-11-21T20:29:48;7.30;74.40
17659;DHT22;8948;51.534;8.262;2023-11-21T20:34:48;7.30;74.60
17659;DHT22;8948;51.534;8.262;2023-11-21T20:39:49;7.20;75.00
17659;DHT22;8948;51.534;8.262;2023-11-21T20:44:49;7.10;74.50
17659;DHT22;8948;51.534;8.262;2023-11-21T20:49:50;7.10;74.80
17659;DHT22;8948;51.534;8.262;2023-11-21T20:54:51;6.90;74.50
17659;DHT22;8948;51.534;8.262;2023-11-21T20:59:52;6.90;74.80
17659;DHT22;8948;51.534;8.262;2023-11-21T21:04:52;7.00;75.30
17659;DHT22;8948;51.534;8.262;2023-11-21T21:09:53;7.00;75.20
17659;DHT22;8948;51.534;8.262;2023-11-21T21:14:55;6.90;74.70
17659;DHT22;8948;51.534;8.262;2023-11-21T21:19:56;6.90;75.00
17659;DHT22;8948;51.534;8.262;2023-11-21T21:24:57;6.90;75.40
17659;DHT22;8948;51.534;8.262;2023-11-21T21:29:57;6.90;74.50
17659;DHT22;8948;51.534;8.262;2023-11-21T21:34:58;6.90;74.70
17659;DHT22;8948;51.534;8.262;2023-11-21T21:39:58;6.90;74.80
17659;DHT22;8948;51.534;8.262;2023-11-21T21:44:59;6.90;74.60
17659;DHT22;8948;51.534;8.262;2023-11-21T21:50:00;6.80;74.20
17659;DHT22;8948;51.534;8.262;2023-11-21T21:55:02;6.80;74.90
17659;DHT22;8948;51.534;8.262;2023-11-21T22:00:03;6.70;74.40
17659;DHT22;8948;51.534;8.262;2023-11-21T22:05:11;6.70;75.20
17659;DHT22;8948;51.534;8.262;2023-11-21T22:10:12;6.80;75.10
17659;DHT22;8948;51.534;8.262;2023-11-21T22:15:13;6.80;74.60
17659;DHT22;8948;51.534;8.262;2023-11-21T22:20:13;6.70;74.00
17659;DHT22;8948;51.534;8.262;2023-11-21T22:25:14;6.70;74.30
17659;DHT22;8948;51.534;8.262;2023-11-21T22:30:15;6.70;74.60
17659;DHT22;8948;51.534;8.262;2023-11-21T22:35:15;6.80;74.20
17659;DHT22;8948;51.534;8.262;2023-11-21T22:40:16;6.70;73.80
17659;DHT22;8948;51.534;8.262;2023-11-21T22:45:16;6.70;74.50
17659;DHT22;8948;51.534;8.262;2023-11-21T22:50:18;6.70;74.40
17659;DHT22;8948;51.534;8.262;2023-11-21T22:55:18;6.70;73.40
17659;DHT22;8948;51.534;8.262;2023-11-21T23:00:19;6.70;74.10
17659;DHT22;8948;51.534;8.262;2023-11-21T23:05:29;6.70;74.40
17659;DHT22;8948;51.534;8.262;2023-11-21T23:10:31;6.80;74.50
17659;DHT22;8948;51.534;8.262;2023-11-21T23:15:31;6.90;74.20
17659;DHT22;8948;51.534;8.262;2023-11-21T23:20:32;7.00;74.50
17659;DHT22;8948;51.534;8.262;2023-11-21T23:25:32;7.00;74.50
17659;DHT22;8948;51.534;8.262;2023-11-21T23:30:33;7.00;74.70
17659;DHT22;8948;51.534;8.262;2023-11-21T23:35:34;7.00;74.80
17659;DHT22;8948;51.534;8.262;2023-11-21T23:40:35;6.90;74.70
17659;DHT22;8948;51.534;8.262;2023-11-21T23:45:35;6.90;75.10
17659;DHT22;8948;51.534;8.262;2023-11-21T23:50:36;7.00;75.00
17659;DHT22;8948;51.534;8.262;2023-11-21T23:55:37;6.90;74.00
